Hallieford, Virginia
Current Conditions -  °F | °C
As of 12:35 AM on Thursday 27 Nov 2014 (Local Time) from KW75 Reporting Station
Scattered Clouds Scattered Clouds  
Wind Chill: 34°   Ceiling: Unl
Heat Index: 38°   Visibility: 10mi
Dew Point: 35°   Wind: 5mph
Humidity: 89%   Direction: 270°W
Pressure: 30.03"   Gusts: NA
Location:  37.49°N, 76.34°W
Report Text: KW75 270535Z AUTO 27004KT 10SM SCT011 03/02 A3003 RMK AO1 T00310015
Loading
Personal Weather Stations






























Interactive Weather Map New forecast layout! Learn more

10-Day Weather Forecast

Advertisements
Track Severe Weather on mobile